Time;durP1;ratioP1;P1;durP2;ratioP2;P2;SDS_P1;SDS_P2;PMS_P1;PMS_P2;Temp;Humidity;BMP_temperature;BMP_pressure;BME280_temperature;BME280_humidity;BME280_pressure;Samples;Min_cycle;Max_cycle;Signal;HPM_P1;HPM_P2
2023/07/12 00:00:47;;;;;;;6.82;3.67;;;21.70;99.90;;;;;;5094725;28;20024;-68
2023/07/12 00:03:14;;;;;;;7.72;3.72;;;21.80;99.90;;;;;;5094191;28;20081;-70
2023/07/12 00:05:41;;;;;;;8.18;3.83;;;21.80;99.90;;;;;;5094631;28;20028;-68
2023/07/12 00:08:18;;;;;;;6.45;3.50;;;21.80;99.90;;;;;;5094242;28;20032;-68
2023/07/12 00:10:45;;;;;;;7.80;3.30;;;21.80;99.90;;;;;;5094697;28;20016;-68
2023/07/12 00:13:11;;;;;;;8.63;4.75;;;21.70;99.90;;;;;;5094380;28;20536;-67
2023/07/12 00:15:37;;;;;;;8.25;3.50;;;21.70;99.90;;;;;;5094157;28;20031;-68
2023/07/12 00:18:04;;;;;;;6.97;3.78;;;21.80;99.90;;;;;;5093863;28;20379;-68
2023/07/12 00:20:36;;;;;;;7.95;3.85;;;21.70;99.90;;;;;;5094281;28;20032;-68
2023/07/12 00:23:02;;;;;;;10.57;3.85;;;21.60;99.90;;;;;;5094446;28;20152;-68
2023/07/12 00:25:31;;;;;;;7.45;3.70;;;21.50;99.90;;;;;;5094132;28;20036;-69
2023/07/12 00:27:57;;;;;;;8.15;3.65;;;21.40;99.90;;;;;;5094062;28;20017;-68
2023/07/12 00:30:26;;;;;;;9.18;4.05;;;21.30;99.90;;;;;;5094245;28;20038;-68
2023/07/12 00:32:54;;;;;;;7.43;3.90;;;21.20;99.90;;;;;;5092999;28;20506;-68
2023/07/12 00:35:23;;;;;;;9.95;3.88;;;21.10;99.90;;;;;;5093965;28;20035;-67
2023/07/12 00:37:54;;;;;;;9.18;3.85;;;21.00;99.90;;;;;;5094033;28;20024;-68
2023/07/12 00:40:58;;;;;;;8.00;3.90;;;21.00;99.90;;;;;;5094298;28;20026;-68
2023/07/12 00:43:33;;;;;;;10.80;3.97;;;20.90;99.90;;;;;;5094006;28;20021;-68
2023/07/12 00:46:02;;;;;;;7.97;4.07;;;20.90;99.90;;;;;;5093640;28;20533;-68
2023/07/12 00:48:28;;;;;;;11.90;3.90;;;20.90;99.90;;;;;;5093349;28;20398;-69
2023/07/12 00:50:54;;;;;;;10.40;3.70;;;20.90;99.90;;;;;;5093627;28;20035;-68
2023/07/12 00:53:23;;;;;;;8.80;4.05;;;20.80;99.90;;;;;;5093621;28;20071;-68
2023/07/12 00:56:10;;;;;;;8.70;3.80;;;20.90;99.90;;;;;;5094006;28;20031;-68
2023/07/12 00:58:42;;;;;;;11.00;3.90;;;20.90;99.90;;;;;;5093938;28;20025;-68
2023/07/12 01:01:09;;;;;;;7.60;3.58;;;20.80;99.90;;;;;;5093666;28;20016;-68
2023/07/12 01:03:38;;;;;;;9.88;3.92;;;20.80;99.90;;;;;;5093058;28;20034;-69
2023/07/12 01:06:06;;;;;;;8.55;3.70;;;20.80;99.90;;;;;;5093285;28;20066;-68
2023/07/12 01:08:32;;;;;;;9.20;3.50;;;20.90;99.90;;;;;;5093768;28;20118;-68
2023/07/12 01:11:02;;;;;;;8.68;3.53;;;21.20;99.90;;;;;;5093214;28;20020;-68
2023/07/12 01:13:36;;;;;;;9.40;3.80;;;21.30;99.90;;;;;;5093272;28;20046;-68
2023/07/12 01:16:03;;;;;;;7.47;3.42;;;21.40;99.90;;;;;;5092844;28;20077;-68
2023/07/12 01:18:29;;;;;;;7.00;3.15;;;21.40;99.90;;;;;;5093568;28;20508;-68
2023/07/12 01:21:19;;;;;;;9.20;3.67;;;21.50;99.90;;;;;;5093235;28;20024;-68
2023/07/12 01:23:45;;;;;;;11.40;3.90;;;21.50;99.90;;;;;;5092911;28;20061;-68
2023/07/12 01:26:16;;;;;;;13.98;4.15;;;21.40;99.90;;;;;;5093060;28;20494;-67
2023/07/12 01:28:42;;;;;;;11.13;4.00;;;21.50;99.90;;;;;;5092835;28;20107;-68
2023/07/12 01:31:09;;;;;;;9.63;3.80;;;21.50;99.90;;;;;;5092634;28;20082;-68
2023/07/12 01:33:34;;;;;;;10.10;3.75;;;21.50;99.90;;;;;;5092896;28;20024;-68
2023/07/12 01:36:00;;;;;;;8.73;3.80;;;21.50;99.90;;;;;;5092934;28;20107;-68
2023/07/12 01:38:26;;;;;;;7.20;3.40;;;21.50;99.90;;;;;;5092950;28;20099;-68
2023/07/12 01:40:51;;;;;;;10.68;3.58;;;21.50;99.90;;;;;;5093103;28;20024;-68
2023/07/12 01:43:18;;;;;;;9.60;3.60;;;21.30;99.90;;;;;;5092444;28;20059;-68
2023/07/12 01:45:44;;;;;;;10.43;3.72;;;21.20;99.90;;;;;;5091647;28;20505;-68
2023/07/12 01:48:10;;;;;;;9.15;3.97;;;21.10;99.90;;;;;;5092480;28;20020;-68
2023/07/12 01:50:35;;;;;;;8.70;3.88;;;20.90;99.90;;;;;;5092504;28;20028;-69
2023/07/12 01:53:01;;;;;;;9.27;3.65;;;20.80;99.90;;;;;;5092222;28;20118;-68
2023/07/12 01:55:27;;;;;;;10.48;4.10;;;20.80;99.90;;;;;;5092678;28;20099;-68
2023/07/12 01:57:53;;;;;;;8.68;3.80;;;20.70;99.90;;;;;;5092569;28;20545;-69
2023/07/12 02:00:18;;;;;;;10.32;3.88;;;20.70;99.90;;;;;;5092234;28;20040;-68
2023/07/12 02:02:44;;;;;;;7.80;3.72;;;20.60;99.90;;;;;;5092214;28;20082;-68
2023/07/12 02:05:10;;;;;;;10.10;3.92;;;20.60;99.90;;;;;;5092567;28;20491;-68
2023/07/12 02:07:35;;;;;;;10.52;3.78;;;20.50;99.90;;;;;;5092132;28;20491;-68
2023/07/12 02:10:16;;;;;;;8.98;3.72;;;20.50;99.90;;;;;;5092320;28;20035;-69
2023/07/12 02:12:42;;;;;;;8.65;3.83;;;20.50;99.90;;;;;;5091822;28;20036;-69
2023/07/12 02:15:10;;;;;;;10.73;4.35;;;20.50;99.90;;;;;;5091878;28;20115;-68
2023/07/12 02:17:36;;;;;;;10.35;3.65;;;20.50;99.90;;;;;;5092152;28;20097;-69
2023/07/12 02:20:03;;;;;;;9.20;3.38;;;20.50;99.90;;;;;;5091917;28;20518;-68
2023/07/12 02:22:30;;;;;;;12.00;4.40;;;20.60;99.90;;;;;;5091845;28;20077;-68
2023/07/12 02:24:56;;;;;;;11.25;3.85;;;20.60;99.90;;;;;;5091895;28;20594;-68
2023/07/12 02:27:22;;;;;;;11.80;3.67;;;20.60;99.90;;;;;;5091982;28;20016;-68
2023/07/12 02:29:48;;;;;;;7.47;3.90;;;20.70;99.90;;;;;;5091575;28;20026;-68
2023/07/12 02:32:14;;;;;;;8.00;3.08;;;20.80;99.90;;;;;;5091855;28;20506;-68
2023/07/12 02:34:39;;;;;;;9.45;3.90;;;21.00;99.90;;;;;;5091606;28;20020;-68
2023/07/12 02:37:05;;;;;;;11.32;4.32;;;21.10;99.90;;;;;;5091884;28;20035;-69
2023/07/12 02:39:30;;;;;;;8.85;3.85;;;21.20;99.90;;;;;;5091831;28;20483;-68
2023/07/12 02:41:56;;;;;;;6.78;3.50;;;21.20;99.90;;;;;;5091391;28;20081;-68
2023/07/12 02:44:22;;;;;;;9.50;4.05;;;21.20;99.90;;;;;;5091180;28;20077;-68
2023/07/12 02:46:47;;;;;;;8.55;3.80;;;21.30;99.90;;;;;;5090312;28;20035;-68
2023/07/12 02:49:14;;;;;;;9.75;3.97;;;21.30;99.90;;;;;;5091804;28;20024;-68
2023/07/12 02:51:40;;;;;;;9.40;3.92;;;21.30;99.90;;;;;;5091418;28;20146;-68
2023/07/12 02:54:05;;;;;;;8.95;3.88;;;21.20;99.90;;;;;;5091451;28;20864;-67
2023/07/12 02:56:31;;;;;;;9.70;3.92;;;21.20;99.90;;;;;;5091734;28;20024;-67
2023/07/12 02:58:56;;;;;;;9.50;4.20;;;21.20;99.90;;;;;;5091057;28;20510;-68
2023/07/12 03:01:23;;;;;;;8.82;3.60;;;21.20;99.90;;;;;;5091317;28;20116;-69
2023/07/12 03:03:48;;;;;;;6.10;3.55;;;21.20;99.90;;;;;;5091456;28;20024;-68
2023/07/12 03:06:14;;;;;;;9.85;3.83;;;21.00;99.90;;;;;;5091253;28;20026;-68
2023/07/12 03:08:40;;;;;;;9.05;4.30;;;20.90;99.90;;;;;;5091478;28;20024;-69
2023/07/12 03:11:08;;;;;;;10.30;4.35;;;20.70;99.90;;;;;;5090847;28;20028;-68
2023/07/12 03:13:33;;;;;;;10.70;4.28;;;20.60;99.90;;;;;;5091121;28;20032;-69
2023/07/12 03:16:03;;;;;;;7.85;3.70;;;20.60;99.90;;;;;;5091266;28;20028;-68
2023/07/12 03:18:29;;;;;;;7.95;4.00;;;20.50;99.90;;;;;;5091386;28;20020;-69
2023/07/12 03:20:59;;;;;;;10.18;4.45;;;20.50;99.90;;;;;;5090936;28;20106;-69
2023/07/12 03:23:25;;;;;;;10.18;4.13;;;20.50;99.90;;;;;;5091009;28;20053;-69
2023/07/12 03:25:51;;;;;;;8.27;3.85;;;20.40;99.90;;;;;;5091145;28;20494;-69
2023/07/12 03:28:16;;;;;;;11.20;4.18;;;20.30;99.90;;;;;;5089715;28;20028;-67
2023/07/12 03:30:42;;;;;;;9.68;4.03;;;20.30;99.90;;;;;;5091039;28;20043;-68
2023/07/12 03:33:07;;;;;;;8.90;4.13;;;20.30;99.90;;;;;;5091030;28;20067;-69
2023/07/12 03:35:33;;;;;;;8.77;4.00;;;20.30;99.90;;;;;;5091286;28;20060;-68
2023/07/12 03:37:59;;;;;;;8.23;4.38;;;20.20;99.90;;;;;;5091074;28;20099;-69
2023/07/12 03:40:24;;;;;;;10.88;4.50;;;20.10;99.90;;;;;;5090939;28;20095;-69
2023/07/12 03:42:50;;;;;;;9.65;4.40;;;20.10;99.90;;;;;;5090569;28;20028;-69
2023/07/12 03:45:15;;;;;;;11.10;4.57;;;20.10;99.90;;;;;;5090970;28;20104;-68
2023/07/12 03:47:41;;;;;;;9.25;4.38;;;20.20;99.90;;;;;;5090988;28;20034;-68
2023/07/12 03:50:07;;;;;;;10.20;4.53;;;20.30;99.90;;;;;;5090835;28;20024;-67
2023/07/12 03:52:32;;;;;;;8.07;4.65;;;20.40;99.90;;;;;;5090455;28;20706;-68
2023/07/12 03:54:58;;;;;;;9.73;4.28;;;20.50;99.90;;;;;;5091045;28;20457;-68
2023/07/12 03:57:24;;;;;;;10.60;4.38;;;20.50;99.90;;;;;;5090472;28;20024;-68
2023/07/12 03:59:49;;;;;;;9.55;4.10;;;20.60;99.90;;;;;;5090825;28;20072;-69
2023/07/12 04:02:15;;;;;;;11.13;4.60;;;20.60;99.90;;;;;;5091058;28;20032;-68
2023/07/12 04:04:40;;;;;;;10.68;4.80;;;20.70;99.90;;;;;;5090679;28;20016;-69
2023/07/12 04:07:07;;;;;;;12.43;4.82;;;20.60;99.90;;;;;;5090721;28;20035;-68
2023/07/12 04:09:33;;;;;;;10.45;4.60;;;20.60;99.90;;;;;;5094206;28;20020;-68
2023/07/12 04:11:58;;;;;;;9.48;4.03;;;20.60;99.90;;;;;;5093763;28;20089;-68
2023/07/12 04:14:24;;;;;;;12.40;4.63;;;20.60;99.90;;;;;;5094857;28;20099;-69
2023/07/12 04:16:49;;;;;;;10.75;4.18;;;20.60;99.90;;;;;;5094323;28;20020;-69
2023/07/12 04:19:15;;;;;;;10.35;4.30;;;20.60;99.90;;;;;;5094206;28;20375;-69
2023/07/12 04:21:41;;;;;;;10.88;5.50;;;20.60;99.90;;;;;;5094009;28;20524;-68
2023/07/12 04:24:06;;;;;;;11.30;4.78;;;20.40;99.90;;;;;;5093976;28;20399;-67
2023/07/12 04:26:32;;;;;;;11.77;5.05;;;20.30;99.90;;;;;;5093967;28;20024;-69
2023/07/12 04:28:58;;;;;;;10.18;4.60;;;20.20;99.90;;;;;;5093948;28;20490;-66
2023/07/12 04:31:24;;;;;;;9.05;4.47;;;20.20;99.90;;;;;;5094022;28;20612;-69
2023/07/12 04:33:49;;;;;;;11.70;5.00;;;20.10;99.90;;;;;;5094013;28;20448;-69
2023/07/12 04:36:16;;;;;;;8.82;4.78;;;20.10;99.90;;;;;;5093764;28;20031;-69
2023/07/12 04:38:43;;;;;;;11.27;5.15;;;20.00;99.90;;;;;;5094228;28;20624;-69
2023/07/12 04:41:08;;;;;;;9.98;4.65;;;20.00;99.90;;;;;;5093982;28;20012;-68
2023/07/12 04:43:34;;;;;;;10.38;4.95;;;20.00;99.90;;;;;;5094009;28;20036;-69
2023/07/12 04:46:00;;;;;;;9.10;4.70;;;20.00;99.90;;;;;;5094106;28;20020;-68
2023/07/12 04:48:27;;;;;;;7.93;5.03;;;20.00;99.90;;;;;;5094005;28;20032;-68
2023/07/12 04:50:54;;;;;;;11.63;5.10;;;19.90;99.90;;;;;;5093837;28;20051;-69
2023/07/12 04:53:20;;;;;;;8.20;4.57;;;19.90;99.90;;;;;;5093091;28;20071;-66
2023/07/12 04:55:47;;;;;;;7.75;4.55;;;19.90;99.90;;;;;;5093722;28;20016;-66
2023/07/12 04:58:13;;;;;;;11.07;5.10;;;19.90;99.90;;;;;;5093556;28;20032;-66
2023/07/12 05:00:39;;;;;;;8.50;4.97;;;19.80;99.90;;;;;;5093518;28;20057;-66
2023/07/12 05:03:05;;;;;;;10.20;5.05;;;19.90;99.90;;;;;;5093441;28;20513;-66
2023/07/12 05:05:31;;;;;;;8.48;4.75;;;19.90;99.90;;;;;;5093162;28;20032;-65
2023/07/12 05:07:56;;;;;;;9.68;5.03;;;20.10;99.90;;;;;;5093070;28;20047;-65
2023/07/12 05:10:22;;;;;;;9.40;5.03;;;20.10;99.90;;;;;;5093301;28;20028;-67
2023/07/12 05:12:48;;;;;;;10.15;4.88;;;20.30;99.90;;;;;;5093332;28;20085;-65
2023/07/12 05:15:16;;;;;;;10.10;4.78;;;20.40;99.90;;;;;;5093293;28;20020;-66
2023/07/12 05:17:42;;;;;;;8.70;4.72;;;20.40;99.90;;;;;;5092771;28;20032;-65
2023/07/12 05:20:10;;;;;;;9.13;4.97;;;20.40;99.90;;;;;;5091778;28;20082;-66
2023/07/12 05:22:36;;;;;;;10.82;5.32;;;20.50;99.90;;;;;;5092538;28;20047;-65
2023/07/12 05:25:03;;;;;;;9.15;5.28;;;20.50;99.90;;;;;;5092892;28;20050;-65
2023/07/12 05:27:28;;;;;;;8.23;4.90;;;20.50;99.90;;;;;;5092687;28;20295;-66
2023/07/12 05:29:54;;;;;;;7.63;4.90;;;20.60;99.90;;;;;;5092998;28;20103;-66
2023/07/12 05:32:20;;;;;;;9.85;4.88;;;20.60;99.90;;;;;;5092610;28;20039;-66
2023/07/12 05:34:45;;;;;;;8.15;4.95;;;20.70;99.90;;;;;;5092646;28;20371;-65
2023/07/12 05:37:12;;;;;;;10.70;5.00;;;20.70;99.90;;;;;;5092367;28;20027;-65
2023/07/12 05:39:38;;;;;;;9.80;4.55;;;20.60;99.90;;;;;;5092885;28;20032;-65
2023/07/12 05:42:04;;;;;;;8.18;4.63;;;20.60;99.90;;;;;;5092208;28;20589;-65
2023/07/12 05:44:29;;;;;;;10.82;5.10;;;20.50;99.90;;;;;;5092483;28;20020;-64
2023/07/12 05:46:56;;;;;;;10.75;5.05;;;20.50;99.90;;;;;;5092497;28;20035;-65
2023/07/12 05:49:22;;;;;;;13.35;5.07;;;20.50;99.90;;;;;;5092403;28;20028;-65
2023/07/12 05:51:48;;;;;;;12.35;4.80;;;20.40;99.90;;;;;;5091967;28;20501;-65
2023/07/12 05:54:15;;;;;;;8.18;4.50;;;20.40;99.90;;;;;;5092293;28;20028;-65
2023/07/12 05:56:40;;;;;;;9.52;4.35;;;20.40;99.90;;;;;;5092298;28;20024;-65
2023/07/12 05:59:06;;;;;;;7.55;4.18;;;20.40;99.90;;;;;;5092310;28;20035;-65
2023/07/12 06:01:32;;;;;;;10.70;4.70;;;20.40;99.90;;;;;;5092449;28;20036;-65
2023/07/12 06:03:58;;;;;;;11.13;4.57;;;20.40;99.90;;;;;;5092148;28;20032;-65
2023/07/12 06:06:23;;;;;;;8.65;4.63;;;20.40;99.90;;;;;;5091883;28;20030;-65
2023/07/12 06:08:50;;;;;;;10.50;4.55;;;20.40;99.90;;;;;;5092024;28;20031;-65
2023/07/12 06:11:15;;;;;;;9.52;4.38;;;20.50;99.90;;;;;;5092266;28;20424;-65
2023/07/12 06:13:41;;;;;;;10.18;4.22;;;20.60;99.90;;;;;;5092055;28;20073;-65
2023/07/12 06:16:07;;;;;;;11.02;4.70;;;20.70;99.90;;;;;;5092127;28;20442;-66
2023/07/12 06:18:33;;;;;;;10.07;4.57;;;20.80;99.90;;;;;;5091704;28;20050;-65
2023/07/12 06:21:02;;;;;;;10.30;4.50;;;20.80;99.90;;;;;;5091564;28;20091;-65
2023/07/12 06:23:29;;;;;;;12.13;4.78;;;21.00;99.90;;;;;;5091661;28;20557;-66
2023/07/12 06:25:58;;;;;;;8.88;4.60;;;21.00;99.90;;;;;;5091967;28;20032;-65
2023/07/12 06:28:25;;;;;;;10.48;4.60;;;21.10;99.90;;;;;;5091910;28;20469;-65
2023/07/12 06:30:51;;;;;;;11.35;4.82;;;21.40;99.90;;;;;;5091655;28;20070;-65
2023/07/12 06:33:17;;;;;;;8.60;4.82;;;21.50;99.90;;;;;;5091543;28;20063;-64
2023/07/12 06:35:43;;;;;;;7.97;3.85;;;21.70;99.90;;;;;;5091476;28;20039;-65
2023/07/12 06:38:08;;;;;;;9.82;4.50;;;21.80;99.90;;;;;;5091607;28;20024;-65
2023/07/12 06:40:34;;;;;;;9.00;4.00;;;21.90;99.90;;;;;;5091487;28;20031;-65
2023/07/12 06:43:00;;;;;;;8.95;4.45;;;21.90;99.90;;;;;;5091847;28;20030;-65
2023/07/12 06:45:25;;;;;;;8.32;4.25;;;21.90;99.90;;;;;;5091060;28;20039;-66
2023/07/12 06:47:51;;;;;;;11.07;4.70;;;22.00;99.90;;;;;;5091406;28;20048;-65
2023/07/12 06:50:17;;;;;;;10.32;4.75;;;22.10;99.90;;;;;;5091015;28;20036;-64
2023/07/12 06:52:43;;;;;;;11.02;4.78;;;22.10;99.90;;;;;;5091502;28;20032;-65
2023/07/12 06:55:09;;;;;;;10.65;4.80;;;22.10;99.90;;;;;;5091918;28;20433;-65
2023/07/12 06:57:35;;;;;;;11.02;4.80;;;22.10;99.90;;;;;;5090926;28;20055;-65
2023/07/12 07:00:11;;;;;;;9.35;4.50;;;22.20;99.90;;;;;;5091503;28;20042;-64
2023/07/12 07:02:37;;;;;;;8.70;4.40;;;22.10;99.90;;;;;;5091147;28;20027;-64
2023/07/12 07:05:04;;;;;;;9.50;4.68;;;22.10;99.90;;;;;;5090814;28;20024;-63
2023/07/12 07:07:29;;;;;;;12.38;5.00;;;22.00;99.90;;;;;;5091481;28;20039;-64
2023/07/12 07:09:55;;;;;;;13.48;5.20;;;21.80;99.90;;;;;;5091153;28;20016;-64
2023/07/12 07:12:21;;;;;;;10.45;5.13;;;21.60;99.90;;;;;;5090904;28;20036;-64
2023/07/12 07:14:47;;;;;;;11.90;4.95;;;21.60;99.90;;;;;;5091175;28;20020;-65
2023/07/12 07:17:12;;;;;;;10.07;5.00;;;21.40;99.90;;;;;;5091179;28;20032;-65
2023/07/12 07:19:38;;;;;;;10.30;5.45;;;21.40;99.90;;;;;;5090691;28;20435;-64
2023/07/12 07:22:04;;;;;;;8.52;4.70;;;21.30;99.90;;;;;;5089661;28;20408;-65
2023/07/12 07:24:30;;;;;;;8.13;4.85;;;21.30;99.90;;;;;;5091089;28;20093;-64
2023/07/12 07:26:56;;;;;;;9.68;5.05;;;21.30;99.90;;;;;;5091321;28;20496;-64
2023/07/12 07:29:21;;;;;;;9.32;4.40;;;21.20;99.90;;;;;;5091178;28;20020;-64
2023/07/12 07:31:47;;;;;;;4.07;2.20;;;21.30;99.90;;;;;;5090751;28;20040;-64
2023/07/12 07:34:14;;;;;;;3.05;1.60;;;21.30;99.90;;;;;;5090654;28;20058;-65
2023/07/12 07:36:40;;;;;;;3.90;1.80;;;21.40;99.90;;;;;;5090917;28;20043;-64
2023/07/12 07:39:06;;;;;;;3.35;1.80;;;21.50;99.90;;;;;;5091318;28;20410;-65
2023/07/12 07:41:32;;;;;;;2.58;1.50;;;21.50;99.90;;;;;;5090855;28;20028;-64
2023/07/12 07:43:58;;;;;;;4.78;1.58;;;21.50;99.90;;;;;;5094318;28;20107;-64
2023/07/12 07:46:23;;;;;;;2.90;1.30;;;21.70;99.90;;;;;;5094793;28;20093;-64
2023/07/12 07:48:49;;;;;;;3.40;1.60;;;21.90;99.90;;;;;;5094427;28;20059;-65
2023/07/12 07:51:15;;;;;;;3.80;1.60;;;22.00;99.90;;;;;;5094649;28;20028;-65
2023/07/12 07:53:41;;;;;;;2.60;1.67;;;22.20;99.90;;;;;;5095049;28;20414;-65
2023/07/12 07:56:07;;;;;;;3.22;1.58;;;22.30;99.90;;;;;;5094624;28;20024;-64
2023/07/12 07:58:33;;;;;;;3.20;1.42;;;22.30;99.90;;;;;;5094615;28;20532;-64
2023/07/12 08:00:59;;;;;;;3.20;1.27;;;22.20;99.90;;;;;;5094449;28;20028;-64
2023/07/12 08:03:25;;;;;;;5.07;1.50;;;22.30;99.90;;;;;;5094192;28;20055;-64
2023/07/12 08:05:50;;;;;;;3.65;1.50;;;22.40;99.90;;;;;;5094660;28;20390;-64
2023/07/12 08:08:16;;;;;;;3.95;1.40;;;22.50;99.90;;;;;;5093075;28;20032;-64
2023/07/12 08:10:42;;;;;;;2.83;1.20;;;22.50;99.90;;;;;;5094307;28;20024;-65
2023/07/12 08:13:08;;;;;;;2.03;1.02;;;22.50;99.90;;;;;;5094661;28;20036;-64
2023/07/12 08:15:34;;;;;;;2.47;1.30;;;22.60;99.90;;;;;;5094197;28;20016;-64
2023/07/12 08:18:01;;;;;;;2.42;1.20;;;22.40;99.90;;;;;;5093725;28;20059;-64
2023/07/12 08:20:27;;;;;;;1.77;1.15;;;22.40;99.90;;;;;;5094251;28;20016;-65
2023/07/12 08:22:53;;;;;;;2.25;0.70;;;22.20;99.90;;;;;;5093901;28;20060;-64
2023/07/12 08:25:19;;;;;;;1.48;0.77;;;22.00;99.90;;;;;;5094107;28;20031;-65
2023/07/12 08:27:47;;;;;;;0.80;0.60;;;21.80;99.90;;;;;;5094218;28;20509;-64
2023/07/12 08:30:13;;;;;;;0.50;0.50;;;21.70;99.90;;;;;;5093957;28;20035;-65
2023/07/12 08:32:39;;;;;;;1.10;0.70;;;21.60;99.90;;;;;;5093506;28;20125;-65
2023/07/12 08:35:06;;;;;;;0.88;0.60;;;21.50;99.90;;;;;;5094266;28;20534;-65
2023/07/12 08:37:32;;;;;;;1.05;0.70;;;21.50;99.90;;;;;;5093931;28;20036;-64
2023/07/12 08:39:58;;;;;;;0.75;0.60;;;21.40;99.90;;;;;;5093795;28;20024;-64
2023/07/12 08:42:28;;;;;;;0.60;0.60;;;21.40;99.90;;;;;;5093813;28;20050;-64
2023/07/12 08:44:56;;;;;;;2.22;0.60;;;21.50;99.90;;;;;;5093749;28;20027;-64
2023/07/12 08:47:35;;;;;;;1.08;0.70;;;21.50;99.90;;;;;;5093428;28;20432;-64
2023/07/12 08:50:01;;;;;;;0.60;0.60;;;21.50;99.90;;;;;;5093955;28;20034;-64
2023/07/12 08:52:32;;;;;;;0.63;0.60;;;21.60;99.90;;;;;;5093607;28;20115;-64
2023/07/12 08:55:01;;;;;;;1.02;0.73;;;21.70;99.90;;;;;;5093443;28;20112;-64
2023/07/12 08:57:29;;;;;;;0.77;0.60;;;21.70;99.90;;;;;;5093383;28;20063;-64
2023/07/12 09:00:05;;;;;;;0.70;0.50;;;21.70;99.90;;;;;;5093320;28;20029;-65
2023/07/12 09:02:31;;;;;;;0.77;0.60;;;21.80;99.90;;;;;;5093361;28;20164;-65
2023/07/12 09:05:00;;;;;;;1.33;0.65;;;21.80;99.90;;;;;;5093721;28;20050;-64
2023/07/12 09:07:31;;;;;;;0.70;0.60;;;21.90;99.90;;;;;;5093354;28;20097;-64
2023/07/12 09:09:59;;;;;;;1.25;0.85;;;22.10;99.90;;;;;;5093293;28;20016;-64
2023/07/12 09:12:31;;;;;;;1.05;0.73;;;22.30;99.90;;;;;;5092951;28;20106;-65
2023/07/12 09:15:09;;;;;;;1.05;0.80;;;22.40;99.90;;;;;;5092828;28;20131;-64
2023/07/12 09:17:45;;;;;;;1.55;0.90;;;22.50;99.90;;;;;;5092844;28;20053;-65
2023/07/12 09:20:26;;;;;;;1.15;0.82;;;22.50;99.90;;;;;;5091682;28;20043;-65
2023/07/12 09:22:53;;;;;;;1.40;0.70;;;22.60;99.90;;;;;;5092799;28;20105;-64
2023/07/12 09:25:35;;;;;;;1.35;0.88;;;22.70;99.90;;;;;;5092903;28;20031;-65
2023/07/12 09:28:01;;;;;;;1.35;0.80;;;22.70;99.90;;;;;;5092736;28;20028;-65
2023/07/12 09:30:29;;;;;;;2.05;0.90;;;22.80;99.90;;;;;;5092450;28;20020;-65
2023/07/12 09:32:56;;;;;;;3.05;1.35;;;22.90;99.90;;;;;;5092709;28;20433;-65
2023/07/12 09:35:37;;;;;;;1.73;0.90;;;22.90;99.90;;;;;;5092729;28;20062;-65
2023/07/12 09:38:08;;;;;;;1.90;1.20;;;22.70;99.90;;;;;;5092951;28;20459;-65
2023/07/12 09:40:45;;;;;;;1.70;0.90;;;22.70;99.90;;;;;;5092490;28;20023;-65
2023/07/12 09:43:17;;;;;;;1.00;0.80;;;22.70;99.90;;;;;;5092391;28;20035;-65
2023/07/12 09:45:52;;;;;;;1.33;1.00;;;22.50;99.90;;;;;;5092680;28;20020;-64
2023/07/12 09:48:41;;;;;;;1.85;0.90;;;22.40;99.90;;;;;;5092563;28;20110;-65
2023/07/12 09:51:31;;;;;;;1.23;0.73;;;22.40;99.90;;;;;;5092521;28;20032;-65
2023/07/12 09:54:24;;;;;;;1.80;0.85;;;22.50;99.90;;;;;;5092395;28;20115;-64
2023/07/12 09:57:00;;;;;;;1.58;0.93;;;22.50;99.90;;;;;;5092126;28;20491;-65
2023/07/12 09:59:26;;;;;;;1.00;0.80;;;22.50;99.90;;;;;;5092084;28;20031;-65
2023/07/12 10:02:10;;;;;;;2.08;0.90;;;22.40;99.90;;;;;;5092171;28;20020;-65
2023/07/12 10:04:47;;;;;;;1.38;0.90;;;22.50;99.90;;;;;;5092060;28;20115;-65
2023/07/12 10:07:22;;;;;;;1.63;0.90;;;22.50;99.90;;;;;;5091777;28;20513;-64
2023/07/12 10:09:49;;;;;;;1.67;0.80;;;22.50;99.90;;;;;;5091938;28;20486;-64
2023/07/12 10:12:36;;;;;;;1.40;0.77;;;22.50;99.90;;;;;;5091601;28;20040;-64
2023/07/12 10:15:02;;;;;;;1.92;0.80;;;22.50;99.90;;;;;;5092083;28;20020;-64
2023/07/12 10:17:36;;;;;;;2.42;0.80;;;22.60;99.90;;;;;;5092171;28;20028;-64
2023/07/12 10:20:02;;;;;;;1.35;0.90;;;22.70;99.90;;;;;;5092231;28;20016;-65
2023/07/12 10:22:33;;;;;;;1.92;0.82;;;22.70;99.90;;;;;;5092027;28;20017;-64
2023/07/12 10:25:01;;;;;;;1.83;0.90;;;22.80;99.90;;;;;;5091641;28;20510;-64
2023/07/12 10:27:31;;;;;;;3.17;1.00;;;22.90;99.90;;;;;;5091443;28;20016;-64
2023/07/12 10:30:14;;;;;;;2.22;1.10;;;23.10;99.90;;;;;;5091676;28;20107;-65
2023/07/12 10:32:48;;;;;;;3.25;1.00;;;23.30;99.90;;;;;;5091678;28;20167;-64
2023/07/12 10:35:27;;;;;;;2.05;1.10;;;23.50;99.90;;;;;;5091705;28;20122;-65
2023/07/12 10:37:57;;;;;;;2.60;0.98;;;23.60;99.90;;;;;;5091665;28;20046;-65
2023/07/12 10:40:28;;;;;;;2.78;1.25;;;23.60;99.90;;;;;;5091560;28;20024;-64
2023/07/12 10:43:03;;;;;;;3.03;1.00;;;23.60;99.90;;;;;;5091185;28;20020;-65
2023/07/12 10:45:36;;;;;;;3.90;1.38;;;23.60;99.90;;;;;;5091757;28;20024;-64
2023/07/12 10:48:03;;;;;;;3.45;1.10;;;23.60;99.90;;;;;;5091510;28;20031;-64
2023/07/12 10:50:48;;;;;;;1.90;0.85;;;23.80;99.90;;;;;;5090167;28;20024;-64
2023/07/12 10:53:26;;;;;;;3.17;1.30;;;23.90;99.90;;;;;;5091206;28;20510;-64
2023/07/12 10:56:31;;;;;;;2.17;0.90;;;24.00;99.90;;;;;;5091305;28;20563;-65
2023/07/12 10:59:24;;;;;;;2.90;1.17;;;24.00;99.90;;;;;;5080403;28;20036;-65
2023/07/12 11:01:52;;;;;;;2.38;1.02;;;24.00;99.90;;;;;;5091292;28;20024;-65
2023/07/12 11:04:30;;;;;;;4.15;1.30;;;24.00;99.90;;;;;;5091324;28;20032;-64
2023/07/12 11:07:09;;;;;;;3.92;1.35;;;23.90;99.90;;;;;;5091578;28;20056;-65
2023/07/12 11:09:44;;;;;;;3.05;1.20;;;23.80;99.90;;;;;;5091223;28;20081;-64
2023/07/12 11:12:18;;;;;;;4.72;1.40;;;23.70;99.90;;;;;;5090630;28;20032;-65
2023/07/12 11:14:49;;;;;;;4.07;1.40;;;23.60;99.90;;;;;;5091603;28;20024;-65
2023/07/12 11:17:21;;;;;;;4.43;1.50;;;23.60;99.90;;;;;;5092857;28;20098;-65
2023/07/12 11:20:01;;;;;;;6.70;1.73;;;23.50;99.90;;;;;;5095538;28;20059;-65
2023/07/12 11:23:05;;;;;;;3.72;1.48;;;23.60;99.90;;;;;;5095256;28;20035;-64
2023/07/12 11:25:48;;;;;;;5.50;1.80;;;23.60;99.90;;;;;;5032455;28;20038;-64
2023/07/12 11:28:23;;;;;;;6.40;2.13;;;23.60;99.90;;;;;;5032579;28;20107;-65
2023/07/12 11:31:18;;;;;;;5.40;1.90;;;23.60;99.90;;;;;;5032628;28;20025;-64
2023/07/12 11:33:53;;;;;;;8.25;2.65;;;23.60;99.90;;;;;;5032576;28;20045;-65
2023/07/12 11:36:25;;;;;;;6.80;2.10;;;23.70;99.90;;;;;;5033120;28;20033;-65
2023/07/12 11:38:53;;;;;;;6.50;1.77;;;23.70;99.90;;;;;;5032498;28;20038;-65
2023/07/12 11:41:23;;;;;;;6.45;1.80;;;23.80;99.90;;;;;;5032404;28;20040;-65
2023/07/12 11:44:15;;;;;;;5.80;2.03;;;23.80;99.90;;;;;;5032839;28;20029;-64
2023/07/12 11:46:42;;;;;;;5.68;1.73;;;23.80;99.90;;;;;;5028630;28;20068;-65
2023/07/12 11:49:25;;;;;;;4.45;1.73;;;23.60;99.90;;;;;;5032649;28;20546;-65
2023/07/12 11:51:56;;;;;;;4.53;2.03;;;23.60;99.90;;;;;;5031987;28;20034;-64
2023/07/12 11:54:33;;;;;;;4.43;1.80;;;23.90;99.90;;;;;;5032435;28;20087;-65
2023/07/12 11:56:59;;;;;;;5.38;2.05;;;24.00;99.90;;;;;;5032238;28;20028;-65
2023/07/12 11:59:28;;;;;;;7.78;2.00;;;24.20;99.90;;;;;;5062610;28;20036;-65
2023/07/12 12:01:53;;;;;;;6.15;1.98;;;24.40;99.90;;;;;;5094556;28;20553;-65
2023/07/12 12:04:27;;;;;;;4.75;2.00;;;24.50;99.90;;;;;;5094536;28;20108;-65
2023/07/12 12:06:56;;;;;;;7.35;1.90;;;24.60;99.90;;;;;;5094387;28;20102;-65
2023/07/12 12:09:28;;;;;;;4.85;1.60;;;24.50;99.90;;;;;;5094450;28;20024;-65
2023/07/12 12:11:54;;;;;;;5.03;1.70;;;24.50;99.90;;;;;;5094408;28;20024;-65
2023/07/12 12:14:36;;;;;;;5.38;1.50;;;24.60;99.90;;;;;;5094415;28;20028;-65
2023/07/12 12:17:05;;;;;;;5.40;1.60;;;24.70;99.90;;;;;;5094260;28;20028;-64
2023/07/12 12:19:31;;;;;;;5.60;1.80;;;24.80;99.90;;;;;;5093978;28;20153;-64
2023/07/12 12:22:24;;;;;;;6.63;1.90;;;25.00;99.90;;;;;;5094219;28;20110;-65
2023/07/12 12:24:54;;;;;;;6.70;2.17;;;25.20;99.90;;;;;;5091159;28;20044;-65
2023/07/12 12:27:31;;;;;;;4.65;1.77;;;25.10;99.90;;;;;;5094062;28;20036;-65
2023/07/12 12:30:23;;;;;;;5.43;1.83;;;25.10;99.90;;;;;;5093390;28;20013;-65
2023/07/12 12:33:21;;;;;;;4.70;1.70;;;25.10;99.90;;;;;;5083337;28;20051;-65
2023/07/12 12:35:47;;;;;;;4.55;1.70;;;24.90;99.90;;;;;;5093923;28;20042;-65
2023/07/12 12:38:25;;;;;;;6.80;1.92;;;24.90;99.90;;;;;;5093646;28;20039;-65
2023/07/12 12:40:54;;;;;;;4.57;1.80;;;24.90;99.90;;;;;;5093916;28;20020;-65
2023/07/12 12:43:20;;;;;;;5.18;1.80;;;25.10;99.90;;;;;;5093798;28;20031;-65
2023/07/12 12:45:46;;;;;;;5.47;2.08;;;25.10;99.90;;;;;;5093840;28;20028;-65
2023/07/12 12:48:12;;;;;;;4.30;1.90;;;25.10;99.90;;;;;;5093796;28;20048;-65
2023/07/12 12:50:38;;;;;;;5.07;1.83;;;25.10;99.90;;;;;;5093581;28;20422;-65
2023/07/12 12:53:05;;;;;;;3.78;1.73;;;24.80;99.90;;;;;;5093222;28;20068;-64
2023/07/12 12:55:33;;;;;;;4.65;1.92;;;24.60;99.90;;;;;;5094087;28;20456;-65